Time;durP1;ratioP1;P1;durP2;ratioP2;P2;SDS_P1;SDS_P2;PMS_P1;PMS_P2;Temp;Humidity;BMP_temperature;BMP_pressure;BME280_temperature;BME280_humidity;BME280_pressure;Samples;Min_cycle;Max_cycle;Signal;HPM_P1;HPM_P2
2022/01/01 00:00:28;;;;;;;33.92;11.52;;;8.90;90.50;;;;;;4114650;28;20027;-76
2022/01/01 00:02:28;;;;;;;30.05;11.98;;;8.90;90.50;;;;;;4133612;28;20037;-77
2022/01/01 00:04:29;;;;;;;34.70;11.95;;;8.90;90.50;;;;;;4112249;28;20035;-77
2022/01/01 00:06:29;;;;;;;28.38;11.70;;;8.90;90.50;;;;;;4084926;28;20758;-76
2022/01/01 00:08:30;;;;;;;26.67;9.30;;;8.90;90.50;;;;;;4091126;28;20030;-78
2022/01/01 00:10:31;;;;;;;22.58;8.93;;;8.90;90.50;;;;;;4099008;28;20532;-78
2022/01/01 00:12:31;;;;;;;22.95;8.18;;;8.90;90.50;;;;;;4088005;28;20058;-78
2022/01/01 00:14:32;;;;;;;23.83;6.38;;;8.90;90.50;;;;;;4099854;28;20031;-79
2022/01/01 00:16:33;;;;;;;24.88;5.50;;;8.90;90.40;;;;;;4084452;28;20036;-78
2022/01/01 00:18:33;;;;;;;24.00;6.63;;;8.90;90.50;;;;;;4116309;28;20574;-77
2022/01/01 00:20:34;;;;;;;25.70;6.07;;;8.90;90.50;;;;;;4105865;28;20035;-77
2022/01/01 00:22:35;;;;;;;21.75;6.25;;;8.90;90.50;;;;;;4115473;28;20035;-77
2022/01/01 00:24:36;;;;;;;20.80;6.63;;;8.90;90.50;;;;;;4133077;28;20034;-77
2022/01/01 00:26:36;;;;;;;26.17;7.28;;;8.90;90.40;;;;;;4120656;28;20172;-76
2022/01/01 00:28:37;;;;;;;27.30;6.35;;;8.90;90.50;;;;;;4097554;28;20035;-78
2022/01/01 00:30:38;;;;;;;28.20;5.95;;;8.90;90.50;;;;;;4115305;28;20139;-76
2022/01/01 00:32:38;;;;;;;35.05;6.47;;;8.90;90.40;;;;;;4133682;28;20038;-77
2022/01/01 00:34:39;;;;;;;35.38;6.63;;;8.90;90.50;;;;;;4102473;28;20027;-78
2022/01/01 00:36:40;;;;;;;51.53;7.82;;;8.90;90.50;;;;;;4117849;28;20549;-78
2022/01/01 00:38:40;;;;;;;39.65;6.28;;;8.90;90.50;;;;;;4114435;28;20038;-77
2022/01/01 00:40:41;;;;;;;38.45;5.90;;;8.90;90.60;;;;;;4131179;28;20026;-76
2022/01/01 00:42:41;;;;;;;51.90;6.72;;;9.00;90.60;;;;;;4119478;28;20039;-78
2022/01/01 00:44:42;;;;;;;35.10;5.53;;;9.00;90.60;;;;;;4119006;28;20441;-77
2022/01/01 00:46:42;;;;;;;40.58;6.03;;;9.00;90.70;;;;;;4108835;28;20039;-78
2022/01/01 00:48:43;;;;;;;46.95;7.97;;;9.00;90.70;;;;;;4132320;28;20035;-77
2022/01/01 00:50:44;;;;;;;50.45;7.03;;;9.00;90.60;;;;;;4119083;28;20031;-77
2022/01/01 00:52:44;;;;;;;37.72;6.97;;;9.00;90.60;;;;;;4088601;29;20032;-77
2022/01/01 00:54:45;;;;;;;41.00;5.63;;;9.00;90.60;;;;;;4113343;28;20020;-78
2022/01/01 00:56:46;;;;;;;37.85;5.47;;;9.00;90.50;;;;;;4113748;28;20037;-77
2022/01/01 00:58:46;;;;;;;32.85;5.43;;;9.00;90.50;;;;;;4108724;28;20045;-78
2022/01/01 01:00:48;;;;;;;39.53;5.32;;;9.10;90.50;;;;;;4115087;28;20047;-77
2022/01/01 01:02:49;;;;;;;30.05;5.15;;;9.00;90.40;;;;;;4104502;28;20058;-78
2022/01/01 01:04:49;;;;;;;35.05;5.03;;;9.10;90.40;;;;;;4110160;28;20561;-78
2022/01/01 01:06:50;;;;;;;35.85;4.70;;;9.10;90.40;;;;;;4128523;28;20041;-79
2022/01/01 01:08:53;;;;;;;35.97;6.15;;;9.10;90.30;;;;;;4107677;28;20071;-77
2022/01/01 01:10:56;;;;;;;44.70;6.13;;;9.10;90.30;;;;;;4096544;28;20031;-78
2022/01/01 01:12:56;;;;;;;34.33;5.05;;;9.10;90.20;;;;;;4112467;28;20030;-78
2022/01/01 01:14:57;;;;;;;26.95;4.70;;;9.10;90.20;;;;;;4093555;28;20085;-77
2022/01/01 01:16:58;;;;;;;35.35;4.80;;;9.10;90.10;;;;;;4103380;28;20035;-76
2022/01/01 01:18:58;;;;;;;35.38;4.68;;;9.10;90.10;;;;;;4095620;28;20250;-77
2022/01/01 01:20:59;;;;;;;26.30;4.22;;;9.10;90.00;;;;;;4113960;28;20036;-78
2022/01/01 01:22:59;;;;;;;31.73;4.90;;;9.20;90.00;;;;;;4126163;28;20039;-77
2022/01/01 01:25:01;;;;;;;29.85;4.25;;;9.10;90.00;;;;;;4102913;28;20042;-75
2022/01/01 01:27:03;;;;;;;43.45;6.05;;;9.10;90.00;;;;;;4123943;28;20556;-78
2022/01/01 01:29:05;;;;;;;45.83;5.60;;;9.10;89.80;;;;;;4127075;28;20042;-76
2022/01/01 01:31:05;;;;;;;37.60;4.95;;;9.10;89.70;;;;;;4120932;28;20023;-77
2022/01/01 01:33:06;;;;;;;36.60;4.50;;;9.20;89.70;;;;;;4116392;28;20027;-76
2022/01/01 01:35:08;;;;;;;34.25;5.75;;;9.20;89.60;;;;;;4105543;28;20041;-77
2022/01/01 01:37:08;;;;;;;38.17;5.78;;;9.20;89.50;;;;;;4110709;28;20913;-77
2022/01/01 01:39:09;;;;;;;40.05;5.28;;;9.10;89.40;;;;;;4117359;28;20057;-76
2022/01/01 01:41:10;;;;;;;32.47;5.50;;;9.10;89.20;;;;;;4119831;28;20112;-77
2022/01/01 01:43:12;;;;;;;27.25;5.18;;;9.10;89.20;;;;;;4114603;28;20123;-77
2022/01/01 01:45:17;;;;;;;36.92;7.53;;;9.10;89.10;;;;;;4110623;28;20102;-76
2022/01/01 01:47:27;;;;;;;41.25;5.15;;;9.10;89.10;;;;;;4111777;28;20031;-77
2022/01/01 01:49:31;;;;;;;38.95;4.82;;;9.10;88.90;;;;;;4131392;28;20045;-78
2022/01/01 01:51:31;;;;;;;42.75;4.47;;;9.10;88.90;;;;;;4112097;28;20058;-77
2022/01/01 01:53:32;;;;;;;35.55;4.22;;;9.10;88.90;;;;;;4133486;28;20035;-78
2022/01/01 01:55:32;;;;;;;36.28;4.65;;;9.10;88.70;;;;;;4126814;28;20042;-76
2022/01/01 01:57:34;;;;;;;34.58;4.75;;;9.10;88.60;;;;;;4127669;28;20127;-75
2022/01/01 01:59:35;;;;;;;32.30;6.70;;;9.10;88.60;;;;;;4108754;28;20042;-78
2022/01/01 02:01:36;;;;;;;37.45;5.03;;;9.10;88.50;;;;;;4102689;28;20039;-77
2022/01/01 02:03:37;;;;;;;32.10;4.13;;;9.10;88.50;;;;;;4129937;28;20049;-77
2022/01/01 02:05:38;;;;;;;37.00;5.45;;;9.10;88.40;;;;;;4109017;28;20041;-77
2022/01/01 02:07:38;;;;;;;19.13;4.00;;;9.10;88.30;;;;;;4112516;28;20030;-77
2022/01/01 02:09:39;;;;;;;34.72;4.75;;;9.10;88.40;;;;;;4108933;28;20031;-77
2022/01/01 02:11:40;;;;;;;37.78;5.47;;;9.10;88.40;;;;;;4089633;28;20405;-77
2022/01/01 02:18:21;;;;;;;38.72;5.75;;;9.10;88.30;;;;;;4105605;28;20038;-77
2022/01/01 02:20:23;;;;;;;33.60;4.10;;;9.10;88.40;;;;;;4122131;28;20030;-76
2022/01/01 02:22:24;;;;;;;40.07;5.70;;;9.10;88.40;;;;;;4121498;28;20633;-77
2022/01/01 02:24:25;;;;;;;35.85;5.47;;;9.10;88.30;;;;;;4124121;28;20038;-76
2022/01/01 02:26:33;;;;;;;40.50;5.70;;;9.10;88.20;;;;;;4120064;28;20022;-75
2022/01/01 02:28:34;;;;;;;39.60;5.10;;;9.10;88.20;;;;;;4134755;28;20030;-76
2022/01/01 02:30:34;;;;;;;33.80;4.60;;;9.10;88.20;;;;;;4105220;28;20038;-77
2022/01/01 02:32:35;;;;;;;29.70;5.38;;;9.10;88.10;;;;;;4120169;28;20033;-77
2022/01/01 02:34:36;;;;;;;29.05;4.85;;;9.10;88.00;;;;;;4104541;28;20744;-75
2022/01/01 02:36:41;;;;;;;40.25;5.13;;;9.10;88.10;;;;;;4105347;28;20034;-77
2022/01/01 02:38:41;;;;;;;29.45;5.38;;;9.00;88.00;;;;;;4106013;28;20091;-77
2022/01/01 02:40:43;;;;;;;47.72;6.45;;;9.10;88.10;;;;;;4091035;28;20035;-77
2022/01/01 02:42:44;;;;;;;29.92;4.72;;;9.10;88.20;;;;;;4127747;28;20381;-77
2022/01/01 02:44:44;;;;;;;30.63;5.90;;;9.00;88.20;;;;;;4107315;28;20083;-77
2022/01/01 02:46:45;;;;;;;43.85;5.95;;;9.00;88.10;;;;;;4112003;28;20031;-77
2022/01/01 02:48:46;;;;;;;40.08;4.78;;;9.00;88.20;;;;;;4074843;29;22632;-77
2022/01/01 02:50:46;;;;;;;43.25;6.10;;;9.00;88.00;;;;;;4120678;28;20031;-76
2022/01/01 02:52:47;;;;;;;32.58;4.53;;;9.00;88.00;;;;;;4111831;28;20522;-77
2022/01/01 02:54:48;;;;;;;31.17;5.82;;;9.00;88.00;;;;;;4104545;28;20023;-77
2022/01/01 02:56:49;;;;;;;30.02;4.95;;;9.00;88.00;;;;;;4104168;28;20418;-76
2022/01/01 02:58:50;;;;;;;30.55;5.63;;;9.00;88.10;;;;;;4126673;28;20034;-76
2022/01/01 03:00:51;;;;;;;29.98;5.07;;;9.00;88.10;;;;;;4118228;28;20039;-75
2022/01/01 03:02:51;;;;;;;36.28;5.03;;;9.00;88.30;;;;;;4105357;28;20057;-76
2022/01/01 03:04:52;;;;;;;36.47;4.35;;;9.00;88.30;;;;;;4119489;28;20094;-77
2022/01/01 03:06:55;;;;;;;37.40;5.47;;;9.00;88.30;;;;;;4120814;28;20030;-76
2022/01/01 03:08:56;;;;;;;31.25;4.93;;;9.00;88.40;;;;;;4107673;28;20038;-75
2022/01/01 03:10:57;;;;;;;36.10;4.32;;;9.00;88.50;;;;;;4101931;28;20149;-77
2022/01/01 03:12:57;;;;;;;38.28;4.70;;;9.00;88.50;;;;;;4107804;28;20464;-77
2022/01/01 03:14:58;;;;;;;24.95;3.67;;;9.00;88.60;;;;;;4119014;28;20029;-75
2022/01/01 03:16:58;;;;;;;26.52;4.50;;;9.00;88.70;;;;;;4102364;28;20027;-77
2022/01/01 03:18:59;;;;;;;50.83;4.82;;;9.00;88.70;;;;;;4104969;28;20030;-75
2022/01/01 03:21:00;;;;;;;38.63;4.45;;;9.00;88.80;;;;;;4109245;28;20038;-76
2022/01/01 03:23:00;;;;;;;55.95;6.78;;;9.00;88.80;;;;;;4113824;28;20495;-76
2022/01/01 03:25:01;;;;;;;33.33;5.28;;;9.00;88.70;;;;;;4123092;28;20030;-76
2022/01/01 03:27:02;;;;;;;35.47;4.28;;;9.00;88.60;;;;;;4107447;28;20035;-76
2022/01/01 03:29:02;;;;;;;32.10;5.40;;;9.00;88.30;;;;;;4081552;29;20309;-76
2022/01/01 03:31:03;;;;;;;42.50;4.97;;;9.00;88.30;;;;;;4102743;28;20027;-76
2022/01/01 03:33:04;;;;;;;42.97;5.70;;;9.00;88.10;;;;;;4103128;28;20441;-76
2022/01/01 03:35:05;;;;;;;31.88;4.47;;;9.00;87.90;;;;;;4108243;28;20035;-76
2022/01/01 03:37:05;;;;;;;34.75;5.30;;;9.00;87.80;;;;;;4117174;28;20058;-76
2022/01/01 03:39:06;;;;;;;38.78;5.47;;;9.00;87.70;;;;;;4100903;28;20050;-76
2022/01/01 03:41:06;;;;;;;32.67;6.95;;;9.00;87.60;;;;;;4117126;28;20081;-75
2022/01/01 03:43:07;;;;;;;48.83;6.85;;;9.00;87.60;;;;;;4119811;28;20041;-77
2022/01/01 03:45:08;;;;;;;34.30;4.85;;;8.90;87.30;;;;;;4101770;28;20121;-76
2022/01/01 03:47:11;;;;;;;31.60;4.68;;;8.90;87.40;;;;;;4111025;28;20117;-77
2022/01/01 03:49:12;;;;;;;36.42;5.07;;;9.00;87.60;;;;;;4109331;28;20526;-76
2022/01/01 03:51:13;;;;;;;46.35;4.90;;;8.90;87.50;;;;;;4110878;28;20023;-77
2022/01/01 03:53:13;;;;;;;49.40;8.25;;;8.90;87.30;;;;;;4090335;28;20282;-77
2022/01/01 03:55:14;;;;;;;38.45;4.63;;;8.90;87.30;;;;;;4086795;29;20038;-77
2022/01/01 03:57:15;;;;;;;32.63;4.75;;;8.90;87.20;;;;;;4108506;28;20027;-77
2022/01/01 03:59:16;;;;;;;33.60;4.60;;;8.90;87.10;;;;;;4140399;23;20052;-73
2022/01/01 04:01:16;;;;;;;40.22;4.97;;;8.90;87.20;;;;;;4151527;28;20026;-73
2022/01/01 04:03:17;;;;;;;39.85;4.90;;;8.90;87.10;;;;;;4155576;28;20029;-74
2022/01/01 04:05:18;;;;;;;42.97;5.60;;;8.90;87.00;;;;;;4142159;28;20351;-73
2022/01/01 04:07:18;;;;;;;37.85;4.78;;;8.90;86.90;;;;;;4156783;28;20021;-73
2022/01/01 04:09:19;;;;;;;50.45;4.93;;;8.90;86.90;;;;;;4157841;28;20044;-73
2022/01/01 04:11:21;;;;;;;36.05;5.45;;;8.90;86.90;;;;;;4159744;28;20037;-73
2022/01/01 04:13:22;;;;;;;37.95;5.63;;;8.90;86.90;;;;;;4140842;28;20449;-74
2022/01/01 04:15:22;;;;;;;33.33;4.68;;;8.90;87.00;;;;;;4154630;28;20028;-73
2022/01/01 04:17:23;;;;;;;38.58;5.53;;;8.90;86.90;;;;;;4160591;28;20640;-73
2022/01/01 04:19:33;;;;;;;49.75;5.68;;;8.90;86.90;;;;;;4157442;28;20255;-73
2022/01/01 04:21:35;;;;;;;31.27;5.22;;;8.80;86.70;;;;;;4136926;28;20429;-74
2022/01/01 04:23:36;;;;;;;46.60;6.38;;;8.80;86.70;;;;;;4124813;28;20125;-74
2022/01/01 04:25:37;;;;;;;30.60;4.32;;;8.80;86.50;;;;;;4157736;28;20037;-74
2022/01/01 04:27:38;;;;;;;44.40;5.10;;;8.80;86.60;;;;;;4137472;28;20153;-75
2022/01/01 04:29:39;;;;;;;48.05;6.97;;;8.90;86.60;;;;;;4155856;28;20062;-75
2022/01/01 04:31:41;;;;;;;36.05;5.53;;;8.80;86.40;;;;;;4135024;28;20033;-75
2022/01/01 04:33:43;;;;;;;39.67;6.63;;;8.80;86.50;;;;;;4136179;28;20106;-75
2022/01/01 04:35:43;;;;;;;43.88;5.43;;;8.80;86.40;;;;;;4134432;28;20029;-75
2022/01/01 04:37:44;;;;;;;41.88;6.90;;;8.80;86.40;;;;;;4145493;28;20022;-75
2022/01/01 04:39:45;;;;;;;27.98;4.70;;;8.80;86.40;;;;;;4147745;28;20022;-75
2022/01/01 04:41:45;;;;;;;37.38;5.45;;;8.70;86.20;;;;;;4156515;28;20037;-75
2022/01/01 04:43:46;;;;;;;42.38;5.50;;;8.70;86.20;;;;;;4160729;28;20022;-75
2022/01/01 04:45:47;;;;;;;48.03;6.22;;;8.70;86.20;;;;;;4151773;28;20489;-74
2022/01/01 04:47:47;;;;;;;42.17;5.45;;;8.70;86.10;;;;;;4162223;28;20068;-75
2022/01/01 04:49:48;;;;;;;38.80;5.45;;;8.70;86.20;;;;;;4161314;28;20509;-74
2022/01/01 04:51:49;;;;;;;43.65;4.47;;;8.70;86.20;;;;;;4161104;28;20030;-75
2022/01/01 04:53:50;;;;;;;31.75;4.38;;;8.70;86.20;;;;;;4158026;28;20645;-75
2022/01/01 04:55:51;;;;;;;37.85;5.32;;;8.70;86.20;;;;;;4144488;28;20490;-74
2022/01/01 04:57:51;;;;;;;33.85;4.72;;;8.70;86.30;;;;;;4148952;28;20056;-75
2022/01/01 04:59:52;;;;;;;32.95;4.78;;;8.60;86.20;;;;;;4152975;28;20046;-75
2022/01/01 05:01:53;;;;;;;35.05;6.03;;;8.70;86.20;;;;;;4142737;28;20026;-75
2022/01/01 05:03:55;;;;;;;37.95;4.53;;;8.70;86.10;;;;;;4143290;28;20038;-75
2022/01/01 05:05:55;;;;;;;44.25;5.28;;;8.70;86.10;;;;;;4144816;28;20034;-75
2022/01/01 05:07:56;;;;;;;52.72;5.97;;;8.60;86.10;;;;;;4162397;28;20031;-75
2022/01/01 05:09:56;;;;;;;40.15;4.85;;;8.70;86.10;;;;;;4160722;28;20538;-74
2022/01/01 05:11:57;;;;;;;44.90;5.60;;;8.70;86.20;;;;;;4140126;28;20150;-75
2022/01/01 05:13:58;;;;;;;32.28;4.53;;;8.60;86.10;;;;;;4160935;28;20437;-75
2022/01/01 05:15:58;;;;;;;42.33;4.97;;;8.70;86.20;;;;;;4144872;28;20112;-75
2022/01/01 05:17:59;;;;;;;58.30;7.10;;;8.70;86.10;;;;;;4162124;28;20032;-75
2022/01/01 05:19:59;;;;;;;39.90;4.80;;;8.60;86.00;;;;;;4135503;28;20113;-75
2022/01/01 05:22:00;;;;;;;28.30;5.25;;;8.60;86.00;;;;;;4161435;28;20482;-74
2022/01/01 05:24:02;;;;;;;26.38;3.58;;;8.70;86.20;;;;;;4160253;28;20035;-75
2022/01/01 05:26:02;;;;;;;32.10;5.60;;;8.70;86.20;;;;;;4128678;28;20550;-74
2022/01/01 05:28:03;;;;;;;38.65;5.45;;;8.70;86.20;;;;;;4154799;28;20065;-74
2022/01/01 05:30:05;;;;;;;31.92;4.65;;;8.70;86.10;;;;;;4161970;28;20021;-75
2022/01/01 05:32:06;;;;;;;31.02;4.55;;;8.70;86.20;;;;;;4142509;28;20030;-74
2022/01/01 05:34:06;;;;;;;37.08;4.78;;;8.70;86.10;;;;;;4161439;28;20037;-74
2022/01/01 05:36:07;;;;;;;37.40;5.05;;;8.70;86.10;;;;;;4138117;28;20573;-74
2022/01/01 05:38:08;;;;;;;42.13;5.82;;;8.70;86.00;;;;;;4134789;28;20036;-75
2022/01/01 05:40:09;;;;;;;34.42;4.60;;;8.80;86.00;;;;;;4143972;28;20022;-74
2022/01/01 05:42:09;;;;;;;34.10;5.22;;;8.70;86.20;;;;;;4159482;28;20033;-74
2022/01/01 05:44:10;;;;;;;40.95;4.82;;;8.70;86.20;;;;;;4161386;28;20653;-75
2022/01/01 05:46:11;;;;;;;41.83;4.93;;;8.70;86.10;;;;;;4155225;28;20466;-75
2022/01/01 05:48:11;;;;;;;31.77;4.63;;;8.70;86.10;;;;;;4127617;28;20014;-74
2022/01/01 05:50:12;;;;;;;33.13;4.60;;;8.70;86.10;;;;;;4161651;28;20076;-74
2022/01/01 05:52:12;;;;;;;40.10;4.38;;;8.70;86.10;;;;;;4142653;28;20029;-74
2022/01/01 05:54:13;;;;;;;32.42;4.60;;;8.70;86.00;;;;;;4158787;28;20041;-74
2022/01/01 05:56:14;;;;;;;37.65;4.93;;;8.80;86.10;;;;;;4127922;28;20073;-74
2022/01/01 05:58:14;;;;;;;45.70;5.40;;;8.80;86.00;;;;;;4145233;28;20069;-74
2022/01/01 06:00:15;;;;;;;37.38;4.75;;;8.70;86.00;;;;;;4142776;28;20490;-75
2022/01/01 06:02:16;;;;;;;42.40;5.80;;;8.70;86.10;;;;;;4141847;28;20772;-75
2022/01/01 06:04:16;;;;;;;33.85;4.43;;;8.70;86.00;;;;;;4156087;28;20037;-74
2022/01/01 06:06:17;;;;;;;40.70;5.65;;;8.70;86.00;;;;;;4161301;28;20461;-74
2022/01/01 06:08:18;;;;;;;36.42;6.55;;;8.70;86.00;;;;;;4160929;28;20258;-75
2022/01/01 06:10:19;;;;;;;34.90;5.43;;;8.70;86.10;;;;;;4144279;28;20030;-74
2022/01/01 06:12:20;;;;;;;38.05;5.18;;;8.70;86.10;;;;;;4160079;28;20029;-75
2022/01/01 06:14:21;;;;;;;42.33;6.75;;;8.70;86.10;;;;;;4156880;28;20053;-75
2022/01/01 06:16:21;;;;;;;42.92;5.50;;;8.70;86.10;;;;;;4144367;28;20088;-75
2022/01/01 06:18:22;;;;;;;34.35;4.15;;;8.70;86.10;;;;;;4161092;28;20033;-74
2022/01/01 06:20:22;;;;;;;44.72;5.05;;;8.70;86.10;;;;;;4125432;28;20030;-75
2022/01/01 06:22:23;;;;;;;43.03;4.30;;;8.70;86.10;;;;;;4159626;28;20042;-74
2022/01/01 06:24:24;;;;;;;45.35;5.70;;;8.70;86.20;;;;;;4143325;28;20394;-74
2022/01/01 06:26:24;;;;;;;43.22;5.47;;;8.70;86.20;;;;;;4161619;28;20529;-74
2022/01/01 06:28:25;;;;;;;35.50;4.72;;;8.70;86.10;;;;;;4160953;28;20038;-75
2022/01/01 06:30:32;;;;;;;36.45;5.38;;;8.80;86.20;;;;;;4155590;28;20033;-74
2022/01/01 06:32:33;;;;;;;40.22;5.57;;;8.70;86.00;;;;;;4142999;28;20120;-74
2022/01/01 06:34:34;;;;;;;36.90;4.85;;;8.70;86.00;;;;;;4160340;28;20029;-74
2022/01/01 06:36:34;;;;;;;47.72;4.97;;;8.70;85.90;;;;;;4152115;28;20487;-74
2022/01/01 06:38:35;;;;;;;44.17;4.85;;;8.80;86.00;;;;;;4152122;28;20036;-73
2022/01/01 06:40:36;;;;;;;41.00;4.78;;;8.70;85.80;;;;;;4155765;28;20072;-74
2022/01/01 06:42:36;;;;;;;37.30;5.43;;;8.70;85.80;;;;;;4133278;28;20145;-73
2022/01/01 06:44:37;;;;;;;30.73;5.05;;;8.70;85.90;;;;;;4160592;28;20509;-73
2022/01/01 06:46:38;;;;;;;34.95;6.13;;;8.70;85.90;;;;;;4128938;28;20028;-73
2022/01/01 06:48:38;;;;;;;40.17;4.80;;;8.70;86.00;;;;;;4144358;28;20398;-74
2022/01/01 06:50:39;;;;;;;44.03;6.53;;;8.70;85.90;;;;;;4154705;28;20032;-73
2022/01/01 06:52:44;;;;;;;35.85;5.35;;;8.70;86.00;;;;;;4141933;28;20065;-73
2022/01/01 06:54:44;;;;;;;41.63;4.25;;;8.70;86.00;;;;;;4140852;28;20033;-74
2022/01/01 06:56:45;;;;;;;40.50;5.63;;;8.70;86.10;;;;;;4161052;28;20359;-73
2022/01/01 06:58:45;;;;;;;47.00;5.53;;;8.70;86.00;;;;;;4143013;28;20037;-74
2022/01/01 07:00:46;;;;;;;34.55;3.88;;;8.70;86.00;;;;;;4160344;28;20028;-74
2022/01/01 07:02:47;;;;;;;39.00;6.43;;;8.70;86.10;;;;;;4137359;28;20489;-74
2022/01/01 07:04:48;;;;;;;41.55;4.82;;;8.70;86.10;;;;;;4160052;28;20696;-74
2022/01/01 07:06:48;;;;;;;31.83;4.78;;;8.70;86.00;;;;;;4161011;28;20022;-74
2022/01/01 07:08:49;;;;;;;28.58;4.57;;;8.70;86.00;;;;;;4163357;28;20057;-73
2022/01/01 07:10:50;;;;;;;35.70;5.05;;;8.70;86.70;;;;;;4156073;28;20030;-73
2022/01/01 07:12:50;;;;;;;28.20;5.07;;;8.70;85.90;;;;;;4145669;28;20059;-73
2022/01/01 07:14:51;;;;;;;39.10;5.70;;;8.70;85.90;;;;;;4130264;28;20031;-73
2022/01/01 07:16:51;;;;;;;36.38;4.68;;;8.70;85.80;;;;;;4164275;28;20045;-73
2022/01/01 07:18:52;;;;;;;37.45;4.68;;;8.70;85.80;;;;;;4152184;28;20040;-73
2022/01/01 07:20:53;;;;;;;38.80;4.85;;;8.70;85.90;;;;;;4157215;28;20045;-73
2022/01/01 07:22:53;;;;;;;41.80;5.10;;;8.70;85.90;;;;;;4146135;28;20041;-73
2022/01/01 07:24:54;;;;;;;40.13;5.28;;;8.70;86.00;;;;;;4148808;28;20490;-73
2022/01/01 07:26:54;;;;;;;30.70;5.20;;;8.70;86.00;;;;;;4163978;28;20040;-73
2022/01/01 07:28:55;;;;;;;36.25;6.28;;;8.80;86.10;;;;;;4163767;28;20650;-73
2022/01/01 07:30:55;;;;;;;46.63;4.95;;;8.70;86.00;;;;;;4146400;28;20037;-73
2022/01/01 07:32:56;;;;;;;43.25;6.28;;;8.70;86.00;;;;;;4163636;28;20041;-73
2022/01/01 07:34:57;;;;;;;32.85;5.32;;;8.70;86.10;;;;;;4159449;28;20025;-73
2022/01/01 07:36:57;;;;;;;34.45;4.95;;;8.70;86.10;;;;;;4135790;28;20035;-73
2022/01/01 07:38:58;;;;;;;35.10;5.85;;;8.70;86.00;;;;;;4144732;28;20723;-73
2022/01/01 07:40:58;;;;;;;26.75;4.45;;;8.70;86.00;;;;;;4162307;28;20156;-73
2022/01/01 07:42:59;;;;;;;40.08;5.03;;;8.70;86.00;;;;;;4161516;28;20448;-73
2022/01/01 07:45:00;;;;;;;34.00;4.75;;;8.70;85.90;;;;;;4144369;28;20042;-73
2022/01/01 07:47:01;;;;;;;40.45;5.45;;;8.70;86.00;;;;;;4153708;28;20057;-73
2022/01/01 07:49:01;;;;;;;41.35;5.63;;;8.70;86.00;;;;;;4145912;28;20137;-73
2022/01/01 07:51:02;;;;;;;43.78;5.22;;;8.60;86.00;;;;;;4156815;28;20022;-73
2022/01/01 07:53:03;;;;;;;38.13;4.93;;;8.60;86.00;;;;;;4136402;28;20059;-73
2022/01/01 07:55:04;;;;;;;33.78;4.95;;;8.70;86.20;;;;;;4162163;28;20397;-73
2022/01/01 07:57:05;;;;;;;32.08;5.03;;;8.60;86.20;;;;;;4143901;28;20033;-73
2022/01/01 07:59:05;;;;;;;40.33;5.68;;;8.60;86.30;;;;;;4160439;28;20494;-73
2022/01/01 08:01:06;;;;;;;37.97;5.57;;;8.70;86.40;;;;;;4135486;28;20033;-73
2022/01/01 08:03:07;;;;;;;43.78;5.90;;;8.60;86.50;;;;;;4162976;28;20531;-73
2022/01/01 08:05:08;;;;;;;33.72;5.57;;;8.60;86.70;;;;;;4144228;28;20044;-73
2022/01/01 08:07:08;;;;;;;39.95;5.38;;;8.70;86.70;;;;;;4161609;28;20034;-73
2022/01/01 08:09:09;;;;;;;37.20;5.10;;;8.70;86.90;;;;;;4162923;28;20025;-73
2022/01/01 08:11:10;;;;;;;37.40;4.93;;;8.70;87.00;;;;;;4146113;28;20022;-73
2022/01/01 08:13:10;;;;;;;34.15;5.35;;;8.70;87.00;;;;;;4147754;28;20030;-73
2022/01/01 08:15:11;;;;;;;35.45;4.80;;;8.70;87.00;;;;;;4161188;28;20038;-73
2022/01/01 08:17:12;;;;;;;45.45;5.20;;;8.80;87.10;;;;;;4159653;28;20449;-73
2022/01/01 08:19:12;;;;;;;43.80;5.22;;;8.80;87.20;;;;;;4162226;28;20034;-73
2022/01/01 08:21:13;;;;;;;30.83;5.63;;;8.80;87.10;;;;;;4163229;28;20511;-73
2022/01/01 08:23:14;;;;;;;34.90;5.13;;;8.80;87.10;;;;;;4163429;28;20036;-73
2022/01/01 08:25:16;;;;;;;30.73;4.22;;;8.90;87.10;;;;;;4138966;28;20685;-73
2022/01/01 08:27:17;;;;;;;29.55;4.40;;;8.90;87.10;;;;;;4161485;28;20465;-73
2022/01/01 08:29:17;;;;;;;24.00;4.57;;;8.90;87.00;;;;;;4145373;28;20026;-73
2022/01/01 08:31:18;;;;;;;23.00;3.90;;;8.90;86.90;;;;;;4163159;28;20096;-73
2022/01/01 08:33:18;;;;;;;25.30;4.28;;;9.00;87.00;;;;;;4156428;28;20559;-73
2022/01/01 08:35:19;;;;;;;23.80;3.75;;;9.00;86.90;;;;;;4150212;28;20100;-73
2022/01/01 08:37:20;;;;;;;21.10;3.50;;;9.00;86.80;;;;;;4152234;28;20045;-73
2022/01/01 08:39:20;;;;;;;23.95;4.35;;;9.10;86.80;;;;;;4146004;28;20167;-73
2022/01/01 08:41:21;;;;;;;30.60;4.53;;;9.10;86.60;;;;;;4131476;28;20077;-73
2022/01/01 08:43:23;;;;;;;25.80;4.60;;;9.10;86.50;;;;;;4130608;28;20034;-73
2022/01/01 08:45:23;;;;;;;31.63;4.40;;;9.10;86.20;;;;;;4130186;28;20110;-73
2022/01/01 08:47:26;;;;;;;30.27;4.47;;;9.20;86.10;;;;;;4143435;28;20038;-73
2022/01/01 08:49:26;;;;;;;35.42;5.30;;;9.20;85.90;;;;;;4141089;28;20018;-73
2022/01/01 08:51:28;;;;;;;28.38;4.07;;;9.20;85.80;;;;;;4143186;28;20474;-73
2022/01/01 08:53:29;;;;;;;35.65;4.60;;;9.20;85.60;;;;;;4162635;28;20417;-74
2022/01/01 08:55:29;;;;;;;25.67;5.22;;;9.20;85.50;;;;;;4162716;28;20025;-74
2022/01/01 08:57:32;;;;;;;33.58;4.40;;;9.20;85.50;;;;;;4142167;28;20026;-73
2022/01/01 08:59:32;;;;;;;28.25;3.75;;;9.30;85.50;;;;;;4157846;28;20060;-73
2022/01/01 09:01:33;;;;;;;32.60;4.72;;;9.30;85.40;;;;;;4162416;28;20041;-73
2022/01/01 09:03:37;;;;;;;36.33;5.53;;;9.30;85.30;;;;;;4144857;28;20029;-73
2022/01/01 09:05:38;;;;;;;21.90;3.42;;;9.30;85.30;;;;;;4145536;28;20030;-73
2022/01/01 09:07:38;;;;;;;22.65;3.83;;;9.30;85.30;;;;;;4154706;28;20022;-73
2022/01/01 09:09:39;;;;;;;32.28;4.43;;;9.30;85.20;;;;;;4158711;28;20030;-73
2022/01/01 09:11:40;;;;;;;37.13;5.68;;;9.30;85.20;;;;;;4144954;28;20022;-73
2022/01/01 09:13:43;;;;;;;42.05;5.57;;;9.30;85.00;;;;;;4162125;28;20385;-73
2022/01/01 09:15:43;;;;;;;40.67;6.40;;;9.30;84.90;;;;;;4143807;28;20030;-73
2022/01/01 09:17:44;;;;;;;39.60;6.93;;;9.30;84.90;;;;;;4158203;28;20029;-73
2022/01/01 09:19:44;;;;;;;29.95;5.15;;;9.30;84.80;;;;;;4157255;28;20041;-73
2022/01/01 09:21:45;;;;;;;38.35;5.55;;;9.30;84.70;;;;;;4146669;28;20486;-73
2022/01/01 09:23:47;;;;;;;37.83;7.03;;;9.30;84.60;;;;;;4145207;28;20426;-73
2022/01/01 09:25:47;;;;;;;39.88;6.20;;;9.30;84.50;;;;;;4144806;28;20081;-73
2022/01/01 09:27:48;;;;;;;33.38;6.20;;;9.30;84.30;;;;;;4158863;28;20033;-74
2022/01/01 09:29:49;;;;;;;44.47;8.00;;;9.30;84.10;;;;;;4159664;28;20033;-73
2022/01/01 09:31:49;;;;;;;48.58;6.78;;;9.30;83.90;;;;;;4144044;28;20478;-73
2022/01/01 09:33:50;;;;;;;29.48;6.15;;;9.30;83.80;;;;;;4161951;28;20029;-73
2022/01/01 09:35:50;;;;;;;38.72;7.40;;;9.30;83.60;;;;;;4157716;28;20041;-73
2022/01/01 09:37:51;;;;;;;45.58;8.60;;;9.30;83.50;;;;;;4153008;28;20522;-73
2022/01/01 09:39:52;;;;;;;34.92;7.43;;;9.20;83.50;;;;;;4145537;28;20033;-73
2022/01/01 09:41:52;;;;;;;38.28;6.70;;;9.20;83.60;;;;;;4160318;28;20029;-73
2022/01/01 09:43:54;;;;;;;40.83;8.35;;;9.20;83.70;;;;;;4161495;28;20037;-73
2022/01/01 09:45:55;;;;;;;38.92;7.25;;;9.20;83.80;;;;;;4134970;28;20068;-73
2022/01/01 09:47:56;;;;;;;41.65;9.65;;;9.20;83.60;;;;;;4148957;28;20120;-73
2022/01/01 09:49:56;;;;;;;47.80;7.82;;;9.20;83.70;;;;;;4160732;28;20033;-73
2022/01/01 09:51:57;;;;;;;38.72;7.70;;;9.20;83.50;;;;;;4144335;28;20033;-73
2022/01/01 09:53:58;;;;;;;36.03;7.13;;;9.20;83.60;;;;;;4144147;28;20034;-73
2022/01/01 09:56:00;;;;;;;33.38;8.95;;;9.20;83.60;;;;;;4146126;28;20033;-73
2022/01/01 09:58:01;;;;;;;40.30;8.50;;;9.20;83.60;;;;;;4131840;28;20068;-73
2022/01/01 10:00:03;;;;;;;35.42;8.77;;;9.10;83.40;;;;;;4160813;28;20048;-73
2022/01/01 10:02:04;;;;;;;30.20;7.45;;;9.20;83.50;;;;;;4143603;28;20105;-73
2022/01/01 10:04:12;;;;;;;34.17;8.15;;;9.10;83.50;;;;;;4134317;28;20376;-73
2022/01/01 10:06:15;;;;;;;25.10;6.97;;;9.10;83.50;;;;;;4127907;28;20055;-73
2022/01/01 10:08:22;;;;;;;28.25;7.78;;;9.10;83.60;;;;;;4158819;28;20021;-73
2022/01/01 10:10:25;;;;;;;41.13;9.27;;;9.10;83.70;;;;;;4143404;28;20018;-74
2022/01/01 10:12:39;;;;;;;34.33;8.32;;;9.10;83.60;;;;;;4161502;28;20021;-73
2022/01/01 10:14:41;;;;;;;29.80;9.10;;;9.10;83.60;;;;;;4145005;28;20033;-73
2022/01/01 10:16:42;;;;;;;29.80;8.20;;;9.10;83.60;;;;;;4127906;28;20040;-73
2022/01/01 10:18:44;;;;;;;23.98;8.30;;;9.10;83.50;;;;;;4147437;28;20118;-74
2022/01/01 10:20:45;;;;;;;24.10;8.23;;;9.10;83.40;;;;;;4120546;28;20030;-73
2022/01/01 10:22:50;;;;;;;28.30;8.20;;;9.10;83.30;;;;;;4158679;28;20119;-73
2022/01/01 10:27:43;;;;;;;27.50;7.63;;;9.10;83.30;;;;;;4141217;28;20034;-74
2022/01/01 10:29:44;;;;;;;24.73;8.32;;;9.10;83.40;;;;;;4150341;28;20034;-73
2022/01/01 10:32:06;;;;;;;23.05;7.57;;;9.10;83.40;;;;;;4143318;28;20014;-73
2022/01/01 10:34:13;;;;;;;25.13;7.03;;;9.10;83.30;;;;;;4137429;28;20041;-73
2022/01/01 10:36:14;;;;;;;23.73;7.30;;;9.00;83.30;;;;;;4146591;28;20034;-73